Time;durP1;ratioP1;P1;durP2;ratioP2;P2;SDS_P1;SDS_P2;PMS_P1;PMS_P2;Temp;Humidity;BMP_temperature;BMP_pressure;BME280_temperature;BME280_humidity;BME280_pressure;Samples;Min_cycle;Max_cycle;Signal;HPM_P1;HPM_P2
2021/04/09 00:01:54;;;;;;;;;;;4.10;99.90;;;;;;10481241;28;19924;-83
2021/04/09 00:06:57;;;;;;;;;;;4.70;99.90;;;;;;10498646;28;20010;-84
2021/04/09 00:11:58;;;;;;;;;;;3.90;99.90;;;;;;10480956;28;19951;-83
2021/04/09 00:17:00;;;;;;;;;;;4.00;99.90;;;;;;10497325;28;20003;-83
2021/04/09 00:22:01;;;;;;;;;;;4.10;99.90;;;;;;10498047;28;19928;-83
2021/04/09 00:27:02;;;;;;;;;;;3.90;99.90;;;;;;10497299;28;19931;-84
2021/04/09 00:32:04;;;;;;;;;;;3.90;99.90;;;;;;10498730;28;19931;-84
2021/04/09 00:37:05;;;;;;;;;;;4.00;99.90;;;;;;10480875;28;19924;-84
2021/04/09 00:42:06;;;;;;;;;;;4.40;99.90;;;;;;10480133;28;20382;-83
2021/04/09 00:47:10;;;;;;;;;;;3.90;99.90;;;;;;10497962;28;20414;-83
2021/04/09 00:52:12;;;;;;;;;;;4.20;99.90;;;;;;10464068;28;19931;-83
2021/04/09 00:57:15;;;;;;;;;;;3.90;99.90;;;;;;10480655;28;19930;-84
2021/04/09 01:02:17;;;;;;;;;;;4.00;99.90;;;;;;10479786;28;20290;-84
2021/04/09 01:07:18;;;;;;;;;;;3.60;99.90;;;;;;10499634;28;19934;-84
2021/04/09 01:12:19;;;;;;;;;;;3.40;99.90;;;;;;10539892;28;19928;-83
2021/04/09 01:17:27;;;;;;;;;;;3.60;99.90;;;;;;10528029;28;20321;-83
2021/04/09 01:22:31;;;;;;;;;;;3.40;99.90;;;;;;10529369;28;19928;-83
2021/04/09 01:27:42;;;;;;;;;;;3.70;99.90;;;;;;10546677;28;19938;-83
2021/04/09 01:32:43;;;;;;;;;;;3.40;99.90;;;;;;10546299;28;19924;-83
2021/04/09 01:37:59;;;;;;;;;;;3.40;99.90;;;;;;10525684;28;19925;-83
2021/04/09 01:43:03;;;;;;;;;;;3.30;99.90;;;;;;10504746;28;19967;-83
2021/04/09 01:48:07;;;;;;;;;;;3.60;99.90;;;;;;10503914;28;20290;-83
2021/04/09 01:53:10;;;;;;;;;;;3.70;99.90;;;;;;10454432;22;19925;-83
2021/04/09 01:58:12;;;;;;;;;;;3.90;99.90;;;;;;10504192;28;19931;-83
2021/04/09 02:03:14;;;;;;;;;;;4.40;99.90;;;;;;10502175;28;19931;-83
2021/04/09 02:08:16;;;;;;;;;;;3.70;99.90;;;;;;10502750;28;19925;-83
2021/04/09 02:13:17;;;;;;;;;;;4.40;99.90;;;;;;10503625;28;19925;-83
2021/04/09 02:18:19;;;;;;;;;;;3.90;99.90;;;;;;10502707;28;19928;-83
2021/04/09 02:23:21;;;;;;;;;;;3.70;99.90;;;;;;10502850;28;19925;-83
2021/04/09 02:28:22;;;;;;;;;;;3.90;99.90;;;;;;10500261;28;20360;-83
2021/04/09 02:33:24;;;;;;;;;;;4.00;99.90;;;;;;10483558;28;19930;-83
2021/04/09 02:38:29;;;;;;;;;;;4.20;99.90;;;;;;10484818;28;19931;-83
2021/04/09 02:43:30;;;;;;;;;;;4.10;99.90;;;;;;10460152;28;19932;-83
2021/04/09 02:48:38;;;;;;;;;;;5.90;99.90;;;;;;10442452;28;20287;-83
2021/04/09 02:53:40;;;;;;;;;;;4.10;99.90;;;;;;10459755;28;19935;-83
2021/04/09 02:58:42;;;;;;;;;;;4.40;99.90;;;;;;10459775;28;19931;-83
2021/04/09 03:03:44;;;;;;;;;;;4.30;99.90;;;;;;10442370;28;19924;-83
2021/04/09 03:08:48;;;;;;;;;;;5.30;99.90;;;;;;10442891;28;19964;-83
2021/04/09 03:13:50;;;;;;;;;;;4.80;99.90;;;;;;10441550;28;20295;-83
2021/04/09 03:18:52;;;;;;;;;;;5.10;99.90;;;;;;10459682;28;19928;-83
2021/04/09 03:23:53;;;;;;;;;;;4.70;99.90;;;;;;10459365;28;19924;-83
2021/04/09 03:28:54;;;;;;;;;;;4.40;99.90;;;;;;10457411;28;19925;-82
2021/04/09 03:33:56;;;;;;;;;;;4.40;99.90;;;;;;10440806;28;20029;-83
2021/04/09 03:38:57;;;;;;;;;;;4.40;99.90;;;;;;10457423;28;20292;-83
2021/04/09 03:43:59;;;;;;;;;;;4.30;99.90;;;;;;10441007;28;20107;-82
2021/04/09 03:49:00;;;;;;;;;;;4.30;99.90;;;;;;10457816;28;20294;-82
2021/04/09 03:54:02;;;;;;;;;;;4.30;99.90;;;;;;10457259;28;19931;-82
2021/04/09 03:59:03;;;;;;;;;;;4.20;99.90;;;;;;10469866;28;19931;-82
2021/04/09 04:04:04;;;;;;;;;;;4.10;99.90;;;;;;10498414;28;20371;-82
2021/04/09 04:09:06;;;;;;;;;;;4.20;99.90;;;;;;10464758;28;19931;-82
2021/04/09 04:14:07;;;;;;;;;;;5.40;99.90;;;;;;10499373;28;19924;-82
2021/04/09 04:19:09;;;;;;;;;;;4.10;99.90;;;;;;10480774;28;20019;-82
2021/04/09 04:24:11;;;;;;;;;;;4.10;99.90;;;;;;10481234;28;19931;-83
2021/04/09 04:29:13;;;;;;;;;;;4.00;99.90;;;;;;10485212;28;19925;-82
2021/04/09 04:34:14;;;;;;;;;;;4.00;99.90;;;;;;10439753;28;19931;-82
2021/04/09 04:39:18;;;;;;;;;;;4.00;99.90;;;;;;10440091;28;19929;-83
2021/04/09 04:44:20;;;;;;;;;;;3.90;99.90;;;;;;10438875;28;19935;-83
2021/04/09 04:49:22;;;;;;;;;;;3.80;99.90;;;;;;10453889;28;20023;-82
2021/04/09 04:54:23;;;;;;;;;;;3.70;99.90;;;;;;10505971;28;19925;-83
2021/04/09 04:59:24;;;;;;;;;;;4.70;99.90;;;;;;10455253;28;19931;-83
2021/04/09 05:04:28;;;;;;;;;;;4.70;99.90;;;;;;10463394;28;19929;-83
2021/04/09 05:09:29;;;;;;;;;;;3.30;99.90;;;;;;10430331;28;19929;-83
2021/04/09 05:14:31;;;;;;;;;;;3.30;99.90;;;;;;10446801;28;19925;-83
2021/04/09 05:19:32;;;;;;;;;;;4.30;99.90;;;;;;10464332;28;19975;-83
2021/04/09 05:24:34;;;;;;;;;;;3.40;99.90;;;;;;10463684;28;19924;-83
2021/04/09 05:29:37;;;;;;;;;;;3.40;99.90;;;;;;10463253;28;20331;-83
2021/04/09 05:34:40;;;;;;;;;;;3.40;99.90;;;;;;10446172;28;19929;-83
2021/04/09 05:39:41;;;;;;;;;;;3.60;99.90;;;;;;10445246;28;20362;-83
2021/04/09 05:44:43;;;;;;;;;;;3.70;99.90;;;;;;10463241;28;19925;-83
2021/04/09 05:49:44;;;;;;;;;;;3.70;99.90;;;;;;10463281;28;20007;-83
2021/04/09 05:54:46;;;;;;;;;;;4.10;99.90;;;;;;10445339;28;19925;-83
2021/04/09 05:59:47;;;;;;;;;;;4.90;99.90;;;;;;10445056;28;19925;-83
2021/04/09 06:04:50;;;;;;;;;;;5.60;99.90;;;;;;10427921;28;19925;-83
2021/04/09 06:09:51;;;;;;;;;;;5.80;99.90;;;;;;10428346;28;19968;-82
2021/04/09 06:14:53;;;;;;;;;;;4.70;99.90;;;;;;10462211;28;19931;-82
2021/04/09 06:19:54;;;;;;;;;;;4.90;99.90;;;;;;10427334;28;19931;-83
2021/04/09 06:24:55;;;;;;;;;;;5.50;99.90;;;;;;10443403;28;20380;-82
2021/04/09 06:29:58;;;;;;;;;;;7.10;99.90;;;;;;10427085;28;20372;-82
2021/04/09 06:35:00;;;;;;;;;;;5.90;99.90;;;;;;10460231;28;19935;-83
2021/04/09 06:40:01;;;;;;;;;;;6.10;99.90;;;;;;10427097;28;19932;-83
2021/04/09 06:45:04;;;;;;;;;;;6.00;99.90;;;;;;10460837;28;19931;-83
2021/04/09 06:50:05;;;;;;;;;;;6.40;99.90;;;;;;10442861;28;20011;-83
2021/04/09 06:55:08;;;;;;;;;;;7.20;99.90;;;;;;10462163;28;19925;-83
2021/04/09 07:00:10;;;;;;;;;;;7.40;99.90;;;;;;10460266;28;19925;-83
2021/04/09 07:05:11;;;;;;;;;;;7.50;99.90;;;;;;10441775;28;20019;-83
2021/04/09 07:10:13;;;;;;;;;;;7.50;99.70;;;;;;10442191;28;19932;-83
2021/04/09 07:15:16;;;;;;;;;;;7.90;99.90;;;;;;10442352;28;19939;-83
2021/04/09 07:20:18;;;;;;;;;;;8.60;99.40;;;;;;10459057;28;19931;-83
2021/04/09 07:25:23;;;;;;;;;;;9.20;98.40;;;;;;10440949;28;19928;-84
2021/04/09 07:30:26;;;;;;;;;;;9.30;96.50;;;;;;10458546;28;20417;-83
2021/04/09 07:35:28;;;;;;;;;;;9.70;95.80;;;;;;10440833;28;20282;-83
2021/04/09 07:40:30;;;;;;;;;;;9.70;96.30;;;;;;10440603;28;19925;-83
2021/04/09 07:45:33;;;;;;;;;;;10.00;97.10;;;;;;10491200;28;20023;-84
2021/04/09 07:56:07;;;;;;;;;;;11.30;93.30;;;;;;2977305;26;19984;-85
2021/04/09 08:01:21;;;;;;;;;;;12.30;92.30;;;;;;10389554;28;19925;-84
2021/04/09 08:06:23;;;;;;;;;;;11.80;90.70;;;;;;10369925;28;19932;-84
2021/04/09 08:11:28;;;;;;;;;;;12.10;91.00;;;;;;10369254;28;19932;-84
2021/04/09 08:16:30;;;;;;;;;;;12.90;89.90;;;;;;10352246;28;19968;-84
2021/04/09 08:21:33;;;;;;;;;;;12.50;87.30;;;;;;10352384;28;19979;-84
2021/04/09 08:26:39;;;;;;;;;;;11.60;88.80;;;;;;10351000;28;19929;-84
2021/04/09 08:31:40;;;;;;;;;;;12.20;87.70;;;;;;10352151;28;19926;-85
2021/04/09 08:36:44;;;;;;;;;;;12.70;88.40;;;;;;10368565;28;20338;-85
2021/04/09 08:41:48;;;;;;;;;;;12.00;89.90;;;;;;10369073;28;20016;-84
2021/04/09 08:46:49;;;;;;;;;;;11.60;90.50;;;;;;10368355;28;20489;-84
2021/04/09 08:51:58;;;;;;;;;;;12.20;90.10;;;;;;10352116;28;19925;-84
2021/04/09 08:57:01;;;;;;;;;;;11.40;90.00;;;;;;10357917;28;19925;-84
2021/04/09 09:02:22;;;;;;;;;;;11.20;91.80;;;;;;10396967;28;19925;-84
2021/04/09 09:07:42;;;;;;;;;;;11.20;91.90;;;;;;10391804;28;19926;-84
2021/04/09 09:13:04;;;;;;;;;;;11.60;93.10;;;;;;10391084;28;19947;-84
2021/04/09 09:18:25;;;;;;;;;;;11.60;92.10;;;;;;10370912;28;19972;-84
2021/04/09 09:23:40;;;;;;;;;;;12.20;90.40;;;;;;10367644;28;19932;-84
2021/04/09 09:28:41;;;;;;;;;;;13.00;92.50;;;;;;10367534;28;19925;-84
2021/04/09 09:33:42;;;;;;;;;;;13.60;83.30;;;;;;10366322;28;19925;-84
2021/04/09 09:38:51;;;;;;;;;;;13.80;81.20;;;;;;10388144;28;19926;-84
2021/04/09 09:43:53;;;;;;;;;;;14.80;75.40;;;;;;10355761;28;19925;-84
2021/04/09 09:49:06;;;;;;;;;;;15.50;77.00;;;;;;10412413;28;19925;-84
2021/04/09 09:54:08;;;;;;;;;;;15.60;73.30;;;;;;10415129;28;20019;-84
2021/04/09 09:59:09;;;;;;;;;;;13.80;74.50;;;;;;10396607;28;19925;-84
2021/04/09 10:04:16;;;;;;;;;;;13.90;82.70;;;;;;10397104;28;19925;-84
2021/04/09 10:09:24;;;;;;;;;;;15.30;80.10;;;;;;10397093;28;19994;-84
2021/04/09 10:14:28;;;;;;;;;;;15.10;73.80;;;;;;10414379;28;19975;-84
2021/04/09 10:19:29;;;;;;;;;;;14.00;75.40;;;;;;10413977;28;19925;-84
2021/04/09 10:24:37;;;;;;;;;;;14.50;82.20;;;;;;10380288;28;19932;-84
2021/04/09 10:29:40;;;;;;;;;;;14.40;75.00;;;;;;10396135;28;19925;-84
2021/04/09 10:34:42;;;;;;;;;;;13.60;78.70;;;;;;10413790;28;20012;-84
2021/04/09 10:39:45;;;;;;;;;;;14.50;78.00;;;;;;10394994;28;19929;-84
2021/04/09 10:44:46;;;;;;;;;;;15.10;74.00;;;;;;10412603;28;20275;-84
2021/04/09 10:49:49;;;;;;;;;;;14.60;79.20;;;;;;10393438;28;20356;-84
2021/04/09 10:54:51;;;;;;;;;;;14.60;75.80;;;;;;10411659;28;19929;-84
2021/04/09 10:59:56;;;;;;;;;;;14.40;74.40;;;;;;10393506;28;20012;-84
2021/04/09 11:04:58;;;;;;;;;;;14.70;73.10;;;;;;10485721;27;20366;-84
2021/04/09 11:10:00;;;;;;;;;;;14.70;74.00;;;;;;10590562;27;19930;-84
2021/04/09 11:15:04;;;;;;;;;;;14.60;70.60;;;;;;10625672;27;19927;-84
2021/04/09 11:20:21;;;;;;;;;;;14.90;75.20;;;;;;10507083;27;19925;-84
2021/04/09 11:25:29;;;;;;;;;;;14.40;74.00;;;;;;10405714;28;20271;-84
2021/04/09 11:30:35;;;;;;;;;;;13.80;76.40;;;;;;10410019;28;19964;-84
2021/04/09 11:35:40;;;;;;;;;;;15.20;68.40;;;;;;10393079;28;19925;-84
2021/04/09 11:40:43;;;;;;;;;;;15.70;71.40;;;;;;10375645;28;19925;-84
2021/04/09 11:45:46;;;;;;;;;;;14.30;66.90;;;;;;10391934;28;19925;-84
2021/04/09 11:50:47;;;;;;;;;;;14.00;71.70;;;;;;10409162;28;19929;-84
2021/04/09 11:55:48;;;;;;;;;;;14.10;72.90;;;;;;10391460;28;19929;-84
2021/04/09 12:00:54;;;;;;;;;;;14.80;71.90;;;;;;10389562;28;19933;-84
2021/04/09 12:06:09;;;;;;;;;;;14.90;73.40;;;;;;10408044;28;20398;-84
2021/04/09 12:11:10;;;;;;;;;;;14.60;71.80;;;;;;10408827;28;20295;-84
2021/04/09 12:16:12;;;;;;;;;;;15.30;70.40;;;;;;10391032;28;19925;-84
2021/04/09 12:21:14;;;;;;;;;;;15.10;67.00;;;;;;10407850;28;19964;-84
2021/04/09 12:26:15;;;;;;;;;;;15.20;68.70;;;;;;10390120;28;20291;-84
2021/04/09 12:31:16;;;;;;;;;;;15.60;66.40;;;;;;10373997;28;20280;-84
2021/04/09 12:36:18;;;;;;;;;;;16.10;66.60;;;;;;10407441;28;19926;-84
2021/04/09 12:41:19;;;;;;;;;;;14.90;65.80;;;;;;10408116;28;19929;-84
2021/04/09 12:46:21;;;;;;;;;;;14.20;67.10;;;;;;10374185;28;19935;-84
2021/04/09 12:51:22;;;;;;;;;;;14.20;69.60;;;;;;10389103;28;20372;-84
2021/04/09 12:56:24;;;;;;;;;;;14.40;69.90;;;;;;10406781;28;20368;-84
2021/04/09 13:01:25;;;;;;;;;;;14.40;70.20;;;;;;10406810;28;19931;-84
2021/04/09 13:06:27;;;;;;;;;;;13.50;70.60;;;;;;10407130;28;19974;-84
2021/04/09 13:11:28;;;;;;;;;;;13.90;75.90;;;;;;10412901;28;19925;-84
2021/04/09 13:16:30;;;;;;;;;;;14.50;69.40;;;;;;10382404;28;19932;-84
2021/04/09 13:21:32;;;;;;;;;;;14.00;69.40;;;;;;10417279;28;20021;-82
2021/04/09 13:26:33;;;;;;;;;;;13.50;72.90;;;;;;10417513;28;19968;-84
2021/04/09 13:31:34;;;;;;;;;;;13.10;70.00;;;;;;10396768;28;20371;-84
2021/04/09 13:36:36;;;;;;;;;;;13.50;73.30;;;;;;10414778;28;19926;-84
2021/04/09 13:41:38;;;;;;;;;;;14.40;68.50;;;;;;10415280;28;19925;-84
2021/04/09 13:46:39;;;;;;;;;;;14.20;66.90;;;;;;10397423;28;19925;-84
2021/04/09 13:51:41;;;;;;;;;;;14.00;69.10;;;;;;10414756;28;19932;-84
2021/04/09 13:56:42;;;;;;;;;;;14.50;67.20;;;;;;10414405;28;19925;-84
2021/04/09 14:01:44;;;;;;;;;;;14.30;68.60;;;;;;10413774;28;19925;-84
2021/04/09 14:06:45;;;;;;;;;;;14.70;66.20;;;;;;10395874;28;19925;-84
2021/04/09 14:11:46;;;;;;;;;;;14.00;67.40;;;;;;10414473;28;19925;-84
2021/04/09 14:16:48;;;;;;;;;;;14.00;67.30;;;;;;10386917;28;20422;-84
2021/04/09 14:21:52;;;;;;;;;;;14.40;67.80;;;;;;10416451;23;20336;-87
2021/04/09 14:26:53;;;;;;;;;;;15.10;65.80;;;;;;10409939;28;19935;-86
2021/04/09 14:31:55;;;;;;;;;;;14.80;66.80;;;;;;10394052;28;19925;-87
2021/04/09 14:36:56;;;;;;;;;;;14.60;68.90;;;;;;10410374;28;20418;-87
2021/04/09 14:41:58;;;;;;;;;;;14.30;70.50;;;;;;10404601;28;20438;-86
2021/04/09 14:47:00;;;;;;;;;;;13.60;71.90;;;;;;10377270;28;19925;-87
2021/04/09 14:52:01;;;;;;;;;;;13.80;75.10;;;;;;10416306;28;20331;-86
2021/04/09 14:57:03;;;;;;;;;;;14.00;74.60;;;;;;10451522;28;19931;-86
2021/04/09 15:02:04;;;;;;;;;;;13.40;76.10;;;;;;10427785;28;20006;-86
2021/04/09 15:07:06;;;;;;;;;;;13.50;76.10;;;;;;10410217;28;19926;-86
2021/04/09 15:12:07;;;;;;;;;;;14.20;74.30;;;;;;10409998;28;19929;-86
2021/04/09 15:17:08;;;;;;;;;;;14.10;72.90;;;;;;10409152;28;20020;-86
2021/04/09 15:22:10;;;;;;;;;;;13.70;74.70;;;;;;10408005;28;19975;-86
2021/04/09 15:27:11;;;;;;;;;;;14.10;74.50;;;;;;10409425;28;19931;-86
2021/04/09 15:32:13;;;;;;;;;;;14.30;72.00;;;;;;10409779;28;19935;-86
2021/04/09 15:37:14;;;;;;;;;;;13.70;74.90;;;;;;10408237;28;19968;-86
2021/04/09 15:42:15;;;;;;;;;;;14.00;73.80;;;;;;10408783;28;19926;-87
2021/04/09 15:47:17;;;;;;;;;;;13.80;72.90;;;;;;10409346;28;19925;-86
2021/04/09 15:52:18;;;;;;;;;;;13.80;74.20;;;;;;10410122;28;20307;-86
2021/04/09 15:57:20;;;;;;;;;;;13.60;77.70;;;;;;10407019;28;19925;-86
2021/04/09 16:02:21;;;;;;;;;;;13.20;81.20;;;;;;10409521;28;20029;-86
2021/04/09 16:07:24;;;;;;;;;;;13.90;78.10;;;;;;10388848;28;19926;-86
2021/04/09 16:12:27;;;;;;;;;;;13.40;76.80;;;;;;10369242;28;20401;-86
2021/04/09 16:17:28;;;;;;;;;;;13.60;79.50;;;;;;10369948;28;20020;-86
2021/04/09 16:22:30;;;;;;;;;;;13.70;78.90;;;;;;10367529;28;20372;-86
2021/04/09 16:27:31;;;;;;;;;;;13.50;76.30;;;;;;10375666;28;20367;-86
2021/04/09 16:32:35;;;;;;;;;;;13.00;77.90;;;;;;10392615;28;19932;-86
2021/04/09 16:37:36;;;;;;;;;;;13.20;78.40;;;;;;10407946;28;19932;-86
2021/04/09 16:42:38;;;;;;;;;;;12.90;78.90;;;;;;10407715;28;19932;-86
2021/04/09 16:47:40;;;;;;;;;;;12.80;80.70;;;;;;10413261;28;19935;-86
2021/04/09 16:52:42;;;;;;;;;;;12.50;81.20;;;;;;10415932;28;20692;-86
2021/04/09 16:57:44;;;;;;;;;;;12.40;83.30;;;;;;10415252;28;19926;-86
2021/04/09 17:02:46;;;;;;;;;;;12.40;84.80;;;;;;10416078;28;19932;-86
2021/04/09 17:07:47;;;;;;;;;;;12.20;88.30;;;;;;10408889;27;20379;-86
2021/04/09 17:12:49;;;;;;;;;;;12.00;90.10;;;;;;10629099;27;19984;-86
2021/04/09 17:17:51;;;;;;;;;;;11.80;91.30;;;;;;10632147;27;19927;-86
2021/04/09 17:22:52;;;;;;;;;;;11.80;91.60;;;;;;10419551;27;19931;-86
2021/04/09 17:27:53;;;;;;;;;;;11.70;92.00;;;;;;10415538;28;19932;-86
2021/04/09 17:32:54;;;;;;;;;;;11.70;93.10;;;;;;10414558;28;20275;-86
2021/04/09 17:37:56;;;;;;;;;;;11.60;93.20;;;;;;10397026;28;20302;-86
2021/04/09 17:42:58;;;;;;;;;;;11.50;93.10;;;;;;10413464;28;20418;-86
2021/04/09 17:47:59;;;;;;;;;;;11.30;94.20;;;;;;10384928;28;19926;-86
2021/04/09 17:53:01;;;;;;;;;;;11.20;94.10;;;;;;10412403;28;19925;-86
2021/04/09 17:58:03;;;;;;;;;;;11.10;94.70;;;;;;10412934;28;19939;-85
2021/04/09 18:03:04;;;;;;;;;;;10.90;95.10;;;;;;10414372;28;19932;-85
2021/04/09 18:08:05;;;;;;;;;;;10.90;95.90;;;;;;10383333;28;20021;-86
2021/04/09 18:13:07;;;;;;;;;;;10.80;96.40;;;;;;10355391;28;20387;-85
2021/04/09 18:18:08;;;;;;;;;;;10.70;96.20;;;;;;10397405;28;19933;-84
2021/04/09 18:23:11;;;;;;;;;;;10.60;97.30;;;;;;10434103;28;19967;-86
2021/04/09 18:28:13;;;;;;;;;;;10.50;97.60;;;;;;10418690;27;19931;-85
2021/04/09 18:33:14;;;;;;;;;;;10.60;98.40;;;;;;10479678;27;19932;-86
2021/04/09 18:38:16;;;;;;;;;;;10.40;99.70;;;;;;10458021;27;19923;-86
2021/04/09 18:43:17;;;;;;;;;;;10.30;99.90;;;;;;10431943;27;19925;-86
2021/04/09 18:48:20;;;;;;;;;;;10.40;99.90;;;;;;10413491;28;19929;-86
2021/04/09 18:53:25;;;;;;;;;;;10.20;99.90;;;;;;10412307;28;19971;-86
2021/04/09 18:58:27;;;;;;;;;;;10.10;99.90;;;;;;10391129;28;19926;-85
2021/04/09 19:03:28;;;;;;;;;;;10.10;99.90;;;;;;10361485;28;20047;-85
2021/04/09 19:08:29;;;;;;;;;;;9.80;99.90;;;;;;10410761;28;19931;-85
2021/04/09 19:13:31;;;;;;;;;;;9.80;99.90;;;;;;10410818;28;19925;-86
2021/04/09 19:18:33;;;;;;;;;;;9.80;99.90;;;;;;10410715;28;20372;-86
2021/04/09 19:23:34;;;;;;;;;;;9.80;99.90;;;;;;10411554;28;19925;-86
2021/04/09 19:28:36;;;;;;;;;;;9.60;99.90;;;;;;10393939;28;20299;-85
2021/04/09 19:33:37;;;;;;;;;;;9.60;99.90;;;;;;10396884;28;19925;-85
2021/04/09 19:38:38;;;;;;;;;;;9.50;99.90;;;;;;10398303;28;19929;-86
2021/04/09 19:43:39;;;;;;;;;;;9.30;99.90;;;;;;10409855;28;20016;-85
2021/04/09 19:48:41;;;;;;;;;;;9.10;99.90;;;;;;10369561;28;19925;-85
2021/04/09 19:53:44;;;;;;;;;;;9.20;99.90;;;;;;10385897;28;19926;-85
2021/04/09 19:58:46;;;;;;;;;;;9.00;99.90;;;;;;10369777;28;20394;-85
2021/04/09 20:04:02;;;;;;;;;;;8.80;99.90;;;;;;10370398;28;19932;-85
2021/04/09 20:09:04;;;;;;;;;;;8.70;99.90;;;;;;10409120;28;20321;-85
2021/04/09 20:14:05;;;;;;;;;;;8.50;99.90;;;;;;10410185;28;19925;-85
2021/04/09 20:19:06;;;;;;;;;;;8.50;99.90;;;;;;10407651;28;19929;-86
2021/04/09 20:24:08;;;;;;;;;;;8.30;99.90;;;;;;10409120;28;19930;-85
2021/04/09 20:29:09;;;;;;;;;;;8.40;99.90;;;;;;10437909;28;20393;-86
2021/04/09 20:34:11;;;;;;;;;;;8.20;99.90;;;;;;10392855;28;20016;-86
2021/04/09 20:39:12;;;;;;;;;;;8.10;99.90;;;;;;10368407;28;19935;-85
2021/04/09 20:44:14;;;;;;;;;;;8.10;99.90;;;;;;10406428;28;19925;-85
2021/04/09 20:49:15;;;;;;;;;;;8.40;99.90;;;;;;10408023;28;20449;-86
2021/04/09 20:54:17;;;;;;;;;;;7.80;99.90;;;;;;10391504;28;20264;-86
2021/04/09 20:59:18;;;;;;;;;;;8.00;99.90;;;;;;10408934;28;20663;-86
2021/04/09 21:04:19;;;;;;;;;;;7.90;99.90;;;;;;10408137;22;19935;-84
2021/04/09 21:09:21;;;;;;;;;;;8.10;99.90;;;;;;10350493;28;19926;-84
2021/04/09 21:14:24;;;;;;;;;;;8.10;99.90;;;;;;10350810;28;19925;-84
2021/04/09 21:19:25;;;;;;;;;;;8.10;99.90;;;;;;10350411;28;20005;-84
2021/04/09 21:24:27;;;;;;;;;;;8.10;99.90;;;;;;10351239;28;19925;-84
2021/04/09 21:29:28;;;;;;;;;;;7.80;99.90;;;;;;10334868;28;19925;-84
2021/04/09 21:34:30;;;;;;;;;;;7.90;99.90;;;;;;10357224;28;19930;-84
2021/04/09 21:39:31;;;;;;;;;;;8.00;99.90;;;;;;10356825;28;20376;-84
2021/04/09 21:44:32;;;;;;;;;;;8.10;99.90;;;;;;10356624;28;20394;-84
2021/04/09 21:49:34;;;;;;;;;;;8.30;99.90;;;;;;10355956;28;19976;-84
2021/04/09 21:54:41;;;;;;;;;;;9.00;99.90;;;;;;10356914;28;20283;-84
2021/04/09 21:59:43;;;;;;;;;;;8.00;99.90;;;;;;10356908;28;20017;-84
2021/04/09 22:04:44;;;;;;;;;;;8.00;99.90;;;;;;10373198;28;19931;-84
2021/04/09 22:09:46;;;;;;;;;;;8.00;99.90;;;;;;10373916;28;19925;-84
2021/04/09 22:14:47;;;;;;;;;;;8.00;99.90;;;;;;10373192;28;19933;-84
2021/04/09 22:19:48;;;;;;;;;;;7.90;99.90;;;;;;10371794;28;20261;-84
2021/04/09 22:24:50;;;;;;;;;;;7.90;99.90;;;;;;10373317;28;19930;-84
2021/04/09 22:29:51;;;;;;;;;;;7.90;99.90;;;;;;10373241;28;19925;-84
2021/04/09 22:34:52;;;;;;;;;;;8.20;99.90;;;;;;10373532;28;19931;-84
2021/04/09 22:39:53;;;;;;;;;;;7.80;99.90;;;;;;10368896;28;20376;-84
2021/04/09 22:44:55;;;;;;;;;;;7.80;99.90;;;;;;10354784;28;19925;-84
2021/04/09 22:49:56;;;;;;;;;;;7.70;99.90;;;;;;10339308;28;19932;-85
2021/04/09 22:54:59;;;;;;;;;;;7.60;99.90;;;;;;10371754;28;19930;-84
2021/04/09 23:00:01;;;;;;;;;;;7.60;99.90;;;;;;10373263;28;19930;-84
2021/04/09 23:05:03;;;;;;;;;;;7.60;99.90;;;;;;10371799;28;19926;-85
2021/04/09 23:10:06;;;;;;;;;;;7.50;99.90;;;;;;10371014;28;19925;-84
2021/04/09 23:15:07;;;;;;;;;;;7.50;99.90;;;;;;10354652;28;19925;-84
2021/04/09 23:20:09;;;;;;;;;;;7.50;99.90;;;;;;10371722;28;19925;-84
2021/04/09 23:25:10;;;;;;;;;;;7.50;99.90;;;;;;10353797;28;20371;-85
2021/04/09 23:30:12;;;;;;;;;;;7.50;99.90;;;;;;10353571;28;20431;-84
2021/04/09 23:35:14;;;;;;;;;;;7.50;99.90;;;;;;10353925;28;19932;-84
2021/04/09 23:40:15;;;;;;;;;;;7.30;99.90;;;;;;10438597;28;19925;-83
2021/04/09 23:45:17;;;;;;;;;;;7.30;99.90;;;;;;10370120;28;20391;-85
2021/04/09 23:50:18;;;;;;;;;;;7.30;99.90;;;;;;10334692;28;19937;-84
2021/04/09 23:55:20;;;;;;;;;;;7.20;99.90;;;;;;10367384;28;20396;-84
